sensor_id;sensor_type;location;lat;lon;timestamp;pressure;altitude;pressure_sealevel;temperature;humidity
27202;BME280;14717;46.924;15.474;2022-09-09T00:03:57;97736.06;;;16.22;100.00
27202;BME280;14717;46.924;15.474;2022-09-09T00:06:28;97736.19;;;16.34;100.00
27202;BME280;14717;46.924;15.474;2022-09-09T00:09:02;97742.53;;;16.43;100.00
27202;BME280;14717;46.924;15.474;2022-09-09T00:11:48;97743.53;;;16.47;100.00
27202;BME280;14717;46.924;15.474;2022-09-09T00:17:01;97749.13;;;16.38;100.00
27202;BME280;14717;46.924;15.474;2022-09-09T00:19:51;97749.47;;;16.37;100.00
27202;BME280;14717;46.924;15.474;2022-09-09T00:22:20;97744.34;;;16.47;100.00
27202;BME280;14717;46.924;15.474;2022-09-09T00:24:55;97743.72;;;16.42;100.00
27202;BME280;14717;46.924;15.474;2022-09-09T00:32:39;97726.41;;;15.94;100.00
27202;BME280;14717;46.924;15.474;2022-09-09T00:37:37;97728.88;;;15.71;100.00
27202;BME280;14717;46.924;15.474;2022-09-09T00:40:16;97728.22;;;15.74;100.00
27202;BME280;14717;46.924;15.474;2022-09-09T00:42:44;97731.34;;;15.64;100.00
27202;BME280;14717;46.924;15.474;2022-09-09T00:47:52;97741.34;;;15.65;100.00
27202;BME280;14717;46.924;15.474;2022-09-09T00:56:17;97741.31;;;15.98;100.00
27202;BME280;14717;46.924;15.474;2022-09-09T00:59:21;97752.44;;;15.98;100.00
27202;BME280;14717;46.924;15.474;2022-09-09T01:01:50;97740.81;;;15.54;100.00
27202;BME280;14717;46.924;15.474;2022-09-09T01:04:23;97743.94;;;15.36;100.00
27202;BME280;14717;46.924;15.474;2022-09-09T01:06:57;97747.06;;;15.43;100.00
27202;BME280;14717;46.924;15.474;2022-09-09T01:09:30;97743.81;;;15.58;100.00
27202;BME280;14717;46.924;15.474;2022-09-09T01:12:23;97747.56;;;15.53;100.00
27202;BME280;14717;46.924;15.474;2022-09-09T01:14:52;97754.44;;;15.56;100.00
27202;BME280;14717;46.924;15.474;2022-09-09T01:27:33;97764.91;;;15.42;100.00
27202;BME280;14717;46.924;15.474;2022-09-09T01:30:00;97763.63;;;15.48;100.00
27202;BME280;14717;46.924;15.474;2022-09-09T01:32:42;97769.81;;;15.28;100.00
27202;BME280;14717;46.924;15.474;2022-09-09T01:35:15;97757.53;;;15.29;100.00
27202;BME280;14717;46.924;15.474;2022-09-09T01:37:43;97763.41;;;15.28;100.00
27202;BME280;14717;46.924;15.474;2022-09-09T01:40:09;97769.97;;;15.23;100.00
27202;BME280;14717;46.924;15.474;2022-09-09T01:42:34;97766.72;;;15.46;100.00
27202;BME280;14717;46.924;15.474;2022-09-09T01:44:59;97774.75;;;15.48;100.00
27202;BME280;14717;46.924;15.474;2022-09-09T01:47:25;97763.94;;;15.38;100.00
27202;BME280;14717;46.924;15.474;2022-09-09T01:49:50;97759.63;;;15.15;100.00
27202;BME280;14717;46.924;15.474;2022-09-09T01:52:15;97753.19;;;15.06;100.00
27202;BME280;14717;46.924;15.474;2022-09-09T01:54:41;97742.22;;;15.01;100.00
27202;BME280;14717;46.924;15.474;2022-09-09T02:02:26;97742.97;;;15.32;100.00
27202;BME280;14717;46.924;15.474;2022-09-09T02:05:05;97744.94;;;15.32;100.00
27202;BME280;14717;46.924;15.474;2022-09-09T02:07:42;97740.78;;;15.12;100.00
27202;BME280;14717;46.924;15.474;2022-09-09T02:10:48;97749.81;;;15.26;100.00
27202;BME280;14717;46.924;15.474;2022-09-09T02:13:20;97755.75;;;15.33;100.00
27202;BME280;14717;46.924;15.474;2022-09-09T02:16:00;97765.88;;;15.46;100.00
27202;BME280;14717;46.924;15.474;2022-09-09T02:18:34;97764.59;;;15.52;100.00
27202;BME280;14717;46.924;15.474;2022-09-09T02:21:02;97761.81;;;15.35;100.00
27202;BME280;14717;46.924;15.474;2022-09-09T02:23:29;97766.69;;;15.30;100.00
27202;BME280;14717;46.924;15.474;2022-09-09T02:25:57;97774.25;;;15.46;100.00
27202;BME280;14717;46.924;15.474;2022-09-09T02:28:25;97781.47;;;15.55;100.00
27202;BME280;14717;46.924;15.474;2022-09-09T02:30:53;97776.91;;;15.68;100.00
27202;BME280;14717;46.924;15.474;2022-09-09T02:33:23;97782.97;;;15.70;100.00
27202;BME280;14717;46.924;15.474;2022-09-09T02:35:51;97782.47;;;15.76;100.00
27202;BME280;14717;46.924;15.474;2022-09-09T02:38:17;97784.25;;;15.80;100.00
27202;BME280;14717;46.924;15.474;2022-09-09T02:40:43;97785.59;;;15.75;100.00
27202;BME280;14717;46.924;15.474;2022-09-09T02:43:09;97786.72;;;15.82;100.00
27202;BME280;14717;46.924;15.474;2022-09-09T02:45:56;97781.81;;;15.87;100.00
27202;BME280;14717;46.924;15.474;2022-09-09T02:48:39;97785.59;;;15.75;100.00
27202;BME280;14717;46.924;15.474;2022-09-09T02:56:42;97797.03;;;15.98;100.00
27202;BME280;14717;46.924;15.474;2022-09-09T02:59:11;97796.56;;;15.96;100.00
27202;BME280;14717;46.924;15.474;2022-09-09T03:01:36;97779.84;;;15.71;100.00
27202;BME280;14717;46.924;15.474;2022-09-09T03:04:04;97791.31;;;15.70;100.00
27202;BME280;14717;46.924;15.474;2022-09-09T03:06:30;97782.78;;;15.75;100.00
27202;BME280;14717;46.924;15.474;2022-09-09T03:08:55;97774.75;;;15.81;100.00
27202;BME280;14717;46.924;15.474;2022-09-09T03:11:21;97782.97;;;15.61;100.00
27202;BME280;14717;46.924;15.474;2022-09-09T03:13:46;97774.28;;;15.63;100.00
27202;BME280;14717;46.924;15.474;2022-09-09T03:16:12;97776.06;;;15.50;100.00
27202;BME280;14717;46.924;15.474;2022-09-09T03:18:37;97756.88;;;15.49;100.00
27202;BME280;14717;46.924;15.474;2022-09-09T03:21:02;97760.16;;;15.42;100.00
27202;BME280;14717;46.924;15.474;2022-09-09T03:23:28;97759.84;;;15.44;100.00
27202;BME280;14717;46.924;15.474;2022-09-09T03:25:54;97749.16;;;15.29;100.00
27202;BME280;14717;46.924;15.474;2022-09-09T03:28:22;97756.06;;;15.40;100.00
27202;BME280;14717;46.924;15.474;2022-09-09T03:30:48;97771.47;;;15.46;100.00
27202;BME280;14717;46.924;15.474;2022-09-09T03:33:14;97770.97;;;15.52;100.00
27202;BME280;14717;46.924;15.474;2022-09-09T03:35:45;97776.69;;;15.47;100.00
27202;BME280;14717;46.924;15.474;2022-09-09T03:38:13;97778.66;;;15.30;100.00
27202;BME280;14717;46.924;15.474;2022-09-09T03:40:38;97773.09;;;15.30;100.00
27202;BME280;14717;46.924;15.474;2022-09-09T03:43:04;97766.53;;;15.26;100.00
27202;BME280;14717;46.924;15.474;2022-09-09T03:45:29;97766.34;;;15.31;100.00
27202;BME280;14717;46.924;15.474;2022-09-09T03:47:55;97771.47;;;15.46;100.00
27202;BME280;14717;46.924;15.474;2022-09-09T03:50:22;97775.72;;;15.52;100.00
27202;BME280;14717;46.924;15.474;2022-09-09T03:52:48;97779.00;;;15.54;100.00
27202;BME280;14717;46.924;15.474;2022-09-09T03:55:13;97794.44;;;15.60;100.00
27202;BME280;14717;46.924;15.474;2022-09-09T03:57:39;97780.81;;;15.41;100.00
27202;BME280;14717;46.924;15.474;2022-09-09T04:00:06;97786.81;;;15.18;100.00
27202;BME280;14717;46.924;15.474;2022-09-09T04:02:33;97792.25;;;15.23;100.00
27202;BME280;14717;46.924;15.474;2022-09-09T04:04:58;97784.25;;;15.38;100.00
27202;BME280;14717;46.924;15.474;2022-09-09T04:07:24;97784.41;;;15.33;100.00
27202;BME280;14717;46.924;15.474;2022-09-09T04:09:52;97795.38;;;15.38;100.00
27202;BME280;14717;46.924;15.474;2022-09-09T04:12:18;97788.94;;;15.30;100.00
27202;BME280;14717;46.924;15.474;2022-09-09T04:14:43;97785.28;;;15.12;100.00
27202;BME280;14717;46.924;15.474;2022-09-09T04:17:08;97778.56;;;15.13;100.00
27202;BME280;14717;46.924;15.474;2022-09-09T04:19:34;97776.91;;;14.95;100.00
27202;BME280;14717;46.924;15.474;2022-09-09T04:21:59;97778.88;;;15.03;100.00
27202;BME280;14717;46.924;15.474;2022-09-09T04:24:24;97773.31;;;15.03;100.00
27202;BME280;14717;46.924;15.474;2022-09-09T04:26:52;97781.91;;;15.15;100.00
27202;BME280;14717;46.924;15.474;2022-09-09T04:29:17;97782.72;;;15.16;100.00
27202;BME280;14717;46.924;15.474;2022-09-09T04:31:43;97768.09;;;15.02;100.00
27202;BME280;14717;46.924;15.474;2022-09-09T04:34:09;97765.78;;;15.04;100.00
27202;BME280;14717;46.924;15.474;2022-09-09T04:36:35;97765.00;;;15.12;100.00
27202;BME280;14717;46.924;15.474;2022-09-09T04:39:00;97764.47;;;15.01;100.00
27202;BME280;14717;46.924;15.474;2022-09-09T04:41:26;97767.09;;;15.06;100.00
27202;BME280;14717;46.924;15.474;2022-09-09T04:43:52;97766.28;;;14.97;100.00
27202;BME280;14717;46.924;15.474;2022-09-09T04:46:19;97755.63;;;14.99;100.00
27202;BME280;14717;46.924;15.474;2022-09-09T04:48:44;97759.25;;;15.08;100.00
27202;BME280;14717;46.924;15.474;2022-09-09T04:51:11;97773.09;;;15.30;100.00
27202;BME280;14717;46.924;15.474;2022-09-09T04:53:38;97763.59;;;15.39;100.00
27202;BME280;14717;46.924;15.474;2022-09-09T04:56:14;97764.28;;;15.53;100.00
27202;BME280;14717;46.924;15.474;2022-09-09T04:58:40;97769.16;;;15.31;100.00
27202;BME280;14717;46.924;15.474;2022-09-09T05:01:17;97770.97;;;15.44;100.00
27202;BME280;14717;46.924;15.474;2022-09-09T05:03:43;97775.88;;;15.38;100.00
27202;BME280;14717;46.924;15.474;2022-09-09T05:06:15;97778.00;;;15.33;100.00
27202;BME280;14717;46.924;15.474;2022-09-09T05:08:42;97779.66;;;15.51;100.00
27202;BME280;14717;46.924;15.474;2022-09-09T05:11:21;97768.88;;;15.58;100.00
27202;BME280;14717;46.924;15.474;2022-09-09T05:13:51;97768.84;;;15.41;100.00
27202;BME280;14717;46.924;15.474;2022-09-09T05:16:17;97772.78;;;15.57;100.00
27202;BME280;14717;46.924;15.474;2022-09-09T05:18:43;97768.03;;;15.66;100.00
27202;BME280;14717;46.924;15.474;2022-09-09T05:21:12;97767.69;;;15.75;100.00
27202;BME280;14717;46.924;15.474;2022-09-09T05:23:38;97764.75;;;15.80;100.00
27202;BME280;14717;46.924;15.474;2022-09-09T05:26:05;97774.59;;;15.78;100.00
27202;BME280;14717;46.924;15.474;2022-09-09T05:28:33;97777.38;;;15.70;100.00
27202;BME280;14717;46.924;15.474;2022-09-09T05:31:05;97781.94;;;15.66;100.00
27202;BME280;14717;46.924;15.474;2022-09-09T05:33:33;97780.00;;;15.75;100.00
27202;BME280;14717;46.924;15.474;2022-09-09T05:36:01;97779.00;;;15.71;100.00
27202;BME280;14717;46.924;15.474;2022-09-09T05:38:28;97770.97;;;15.61;100.00
27202;BME280;14717;46.924;15.474;2022-09-09T05:40:55;97774.13;;;15.68;100.00
27202;BME280;14717;46.924;15.474;2022-09-09T05:43:22;97770.66;;;15.79;100.00
27202;BME280;14717;46.924;15.474;2022-09-09T05:45:48;97774.44;;;15.91;100.00
27202;BME280;14717;46.924;15.474;2022-09-09T05:48:14;97777.34;;;16.03;100.00
27202;BME280;14717;46.924;15.474;2022-09-09T05:50:41;97782.91;;;16.12;100.00
27202;BME280;14717;46.924;15.474;2022-09-09T05:53:08;97772.31;;;16.22;100.00
27202;BME280;14717;46.924;15.474;2022-09-09T05:55:33;97774.59;;;16.28;100.00
27202;BME280;14717;46.924;15.474;2022-09-09T05:57:59;97769.47;;;16.39;100.00
27202;BME280;14717;46.924;15.474;2022-09-09T06:00:25;97774.38;;;16.42;99.25
27202;BME280;14717;46.924;15.474;2022-09-09T06:02:52;97770.06;;;16.53;99.53
27202;BME280;14717;46.924;15.474;2022-09-09T06:05:18;97787.13;;;16.60;98.85
27202;BME280;14717;46.924;15.474;2022-09-09T06:07:43;97785.63;;;16.62;97.21
27202;BME280;14717;46.924;15.474;2022-09-09T06:10:10;97795.63;;;16.71;99.56
27202;BME280;14717;46.924;15.474;2022-09-09T06:12:39;97781.19;;;16.69;100.00
27202;BME280;14717;46.924;15.474;2022-09-09T06:15:04;97787.44;;;16.66;97.43
27202;BME280;14717;46.924;15.474;2022-09-09T06:17:30;97790.88;;;16.63;96.65
27202;BME280;14717;46.924;15.474;2022-09-09T06:19:55;97785.81;;;16.57;97.42
27202;BME280;14717;46.924;15.474;2022-09-09T06:22:21;97787.75;;;16.65;98.51
27202;BME280;14717;46.924;15.474;2022-09-09T06:24:46;97781.78;;;16.83;98.02
27202;BME280;14717;46.924;15.474;2022-09-09T06:27:11;97801.75;;;16.94;98.23
27202;BME280;14717;46.924;15.474;2022-09-09T06:29:38;97796.81;;;16.99;98.24
27202;BME280;14717;46.924;15.474;2022-09-09T06:32:04;97803.00;;;17.13;97.52
27202;BME280;14717;46.924;15.474;2022-09-09T06:34:29;97794.75;;;17.25;96.83
27202;BME280;14717;46.924;15.474;2022-09-09T06:36:55;97788.47;;;17.28;94.90
27202;BME280;14717;46.924;15.474;2022-09-09T06:39:23;97793.78;;;17.21;94.73
27202;BME280;14717;46.924;15.474;2022-09-09T06:41:48;97789.16;;;17.25;94.10
27202;BME280;14717;46.924;15.474;2022-09-09T06:44:14;97784.28;;;17.42;92.43
27202;BME280;14717;46.924;15.474;2022-09-09T06:46:40;97788.25;;;17.61;89.95
27202;BME280;14717;46.924;15.474;2022-09-09T06:49:08;97794.53;;;17.79;90.15
27202;BME280;14717;46.924;15.474;2022-09-09T06:51:35;97788.81;;;17.75;91.26
27202;BME280;14717;46.924;15.474;2022-09-09T06:54:02;97775.44;;;17.81;90.45
27202;BME280;14717;46.924;15.474;2022-09-09T06:56:33;97774.44;;;17.85;92.94
27202;BME280;14717;46.924;15.474;2022-09-09T06:59:01;97772.06;;;17.75;90.66
27202;BME280;14717;46.924;15.474;2022-09-09T07:01:30;97783.63;;;17.86;90.01
27202;BME280;14717;46.924;15.474;2022-09-09T07:03:57;97783.38;;;17.79;87.86
27202;BME280;14717;46.924;15.474;2022-09-09T07:06:44;97781.59;;;18.15;88.01
27202;BME280;14717;46.924;15.474;2022-09-09T07:09:12;97788.63;;;18.21;84.70
27202;BME280;14717;46.924;15.474;2022-09-09T07:11:44;97791.94;;;18.34;86.56
27202;BME280;14717;46.924;15.474;2022-09-09T07:14:10;97799.41;;;18.31;86.02
27202;BME280;14717;46.924;15.474;2022-09-09T07:16:43;97791.91;;;18.23;84.93
27202;BME280;14717;46.924;15.474;2022-09-09T07:19:09;97779.19;;;18.25;86.33
27202;BME280;14717;46.924;15.474;2022-09-09T07:21:35;97783.63;;;18.06;84.81
27202;BME280;14717;46.924;15.474;2022-09-09T07:24:01;97783.97;;;18.04;86.22
27202;BME280;14717;46.924;15.474;2022-09-09T07:26:29;97796.72;;;18.14;86.81
27202;BME280;14717;46.924;15.474;2022-09-09T07:28:55;97787.31;;;18.18;85.88
27202;BME280;14717;46.924;15.474;2022-09-09T07:31:29;97789.34;;;18.30;84.36
27202;BME280;14717;46.924;15.474;2022-09-09T07:33:58;97792.75;;;18.35;84.45
27202;BME280;14717;46.924;15.474;2022-09-09T07:36:26;97788.94;;;18.39;84.01
27202;BME280;14717;46.924;15.474;2022-09-09T07:38:57;97793.38;;;18.40;83.67
27202;BME280;14717;46.924;15.474;2022-09-09T07:41:36;97801.22;;;18.47;84.63
27202;BME280;14717;46.924;15.474;2022-09-09T07:44:15;97794.56;;;18.51;84.06
27202;BME280;14717;46.924;15.474;2022-09-09T07:46:40;97795.31;;;18.60;82.98
27202;BME280;14717;46.924;15.474;2022-09-09T07:49:07;97809.50;;;18.55;82.71
27202;BME280;14717;46.924;15.474;2022-09-09T07:51:36;97798.09;;;18.60;82.74
27202;BME280;14717;46.924;15.474;2022-09-09T07:54:05;97797.16;;;18.68;84.25
27202;BME280;14717;46.924;15.474;2022-09-09T07:56:31;97795.31;;;18.72;84.40
27202;BME280;14717;46.924;15.474;2022-09-09T07:58:58;97796.38;;;18.79;84.15
27202;BME280;14717;46.924;15.474;2022-09-09T08:01:29;97800.81;;;18.80;84.74
27202;BME280;14717;46.924;15.474;2022-09-09T08:04:00;97793.56;;;18.79;82.30
27202;BME280;14717;46.924;15.474;2022-09-09T08:06:31;97798.94;;;18.84;83.45
27202;BME280;14717;46.924;15.474;2022-09-09T08:08:59;97799.53;;;18.78;81.90
27202;BME280;14717;46.924;15.474;2022-09-09T08:11:27;97800.25;;;18.87;79.99
27202;BME280;14717;46.924;15.474;2022-09-09T08:13:53;97797.91;;;18.89;79.17
27202;BME280;14717;46.924;15.474;2022-09-09T08:16:22;97802.94;;;18.95;77.89
27202;BME280;14717;46.924;15.474;2022-09-09T08:18:51;97808.94;;;19.06;76.88
27202;BME280;14717;46.924;15.474;2022-09-09T08:21:22;97804.28;;;19.10;76.41
27202;BME280;14717;46.924;15.474;2022-09-09T08:23:50;97815.63;;;19.25;75.86
27202;BME280;14717;46.924;15.474;2022-09-09T08:26:31;97821.91;;;19.34;75.37
27202;BME280;14717;46.924;15.474;2022-09-09T08:28:59;97817.03;;;19.43;74.14
27202;BME280;14717;46.924;15.474;2022-09-09T08:31:34;97824.50;;;19.51;75.04
27202;BME280;14717;46.924;15.474;2022-09-09T08:34:00;97823.44;;;19.67;75.52
27202;BME280;14717;46.924;15.474;2022-09-09T08:36:30;97825.78;;;19.89;73.87
27202;BME280;14717;46.924;15.474;2022-09-09T08:38:58;97833.59;;;19.71;76.36
27202;BME280;14717;46.924;15.474;2022-09-09T08:55:21;97825.31;;;20.65;68.96
27202;BME280;14717;46.924;15.474;2022-09-09T08:57:50;97827.09;;;20.57;71.35
27202;BME280;14717;46.924;15.474;2022-09-09T09:00:17;97821.00;;;20.28;69.21
27202;BME280;14717;46.924;15.474;2022-09-09T09:02:53;97829.94;;;20.07;69.63
27202;BME280;14717;46.924;15.474;2022-09-09T09:05:37;97820.28;;;20.31;72.22
27202;BME280;14717;46.924;15.474;2022-09-09T09:10:51;97812.31;;;20.33;71.64
27202;BME280;14717;46.924;15.474;2022-09-09T09:13:35;97812.69;;;20.32;74.28
27202;BME280;14717;46.924;15.474;2022-09-09T09:16:33;97814.94;;;20.26;73.01
27202;BME280;14717;46.924;15.474;2022-09-09T09:18:58;97814.47;;;20.24;73.46
27202;BME280;14717;46.924;15.474;2022-09-09T09:21:42;97812.81;;;20.23;72.62
27202;BME280;14717;46.924;15.474;2022-09-09T09:26:58;97805.59;;;20.49;71.29
27202;BME280;14717;46.924;15.474;2022-09-09T09:29:26;97801.09;;;20.88;71.53
27202;BME280;14717;46.924;15.474;2022-09-09T09:31:53;97805.59;;;20.77;67.26
27202;BME280;14717;46.924;15.474;2022-09-09T09:34:21;97813.03;;;20.85;68.75
27202;BME280;14717;46.924;15.474;2022-09-09T09:36:54;97816.44;;;21.21;69.62
27202;BME280;14717;46.924;15.474;2022-09-09T09:39:33;97806.53;;;21.73;68.33
27202;BME280;14717;46.924;15.474;2022-09-09T09:42:10;97805.56;;;22.52;62.09
27202;BME280;14717;46.924;15.474;2022-09-09T09:44:39;97803.41;;;22.46;62.93
27202;BME280;14717;46.924;15.474;2022-09-09T09:47:15;97795.47;;;22.32;60.06
27202;BME280;14717;46.924;15.474;2022-09-09T09:49:58;97797.03;;;22.49;61.03
27202;BME280;14717;46.924;15.474;2022-09-09T09:52:26;97799.09;;;22.33;62.63
27202;BME280;14717;46.924;15.474;2022-09-09T09:54:54;97801.66;;;22.04;63.03
27202;BME280;14717;46.924;15.474;2022-09-09T09:57:25;97788.59;;;22.49;61.19
27202;BME280;14717;46.924;15.474;2022-09-09T10:02:41;97786.63;;;23.09;58.68
27202;BME280;14717;46.924;15.474;2022-09-09T10:05:23;97785.53;;;22.95;58.07
27202;BME280;14717;46.924;15.474;2022-09-09T10:08:12;97789.16;;;22.76;60.38
27202;BME280;14717;46.924;15.474;2022-09-09T10:11:02;97790.25;;;22.50;60.61
27202;BME280;14717;46.924;15.474;2022-09-09T10:19:14;97782.78;;;22.79;58.64
27202;BME280;14717;46.924;15.474;2022-09-09T10:22:12;97782.78;;;22.79;59.77
27202;BME280;14717;46.924;15.474;2022-09-09T10:24:48;97775.19;;;22.42;62.75
27202;BME280;14717;46.924;15.474;2022-09-09T10:30:27;97784.06;;;22.44;61.29
27202;BME280;14717;46.924;15.474;2022-09-09T10:36:25;97792.97;;;22.27;61.89
27202;BME280;14717;46.924;15.474;2022-09-09T10:39:04;97767.16;;;22.44;64.43
27202;BME280;14717;46.924;15.474;2022-09-09T10:47:20;97769.75;;;22.15;64.00
27202;BME280;14717;46.924;15.474;2022-09-09T10:50:37;97755.47;;;22.23;64.50
27202;BME280;14717;46.924;15.474;2022-09-09T10:53:59;97759.09;;;22.24;63.27
27202;BME280;14717;46.924;15.474;2022-09-09T10:56:10;97761.94;;;21.90;65.51
27202;BME280;14717;46.924;15.474;2022-09-09T10:58:38;97770.72;;;21.88;66.86
27202;BME280;14717;46.924;15.474;2022-09-09T11:01:46;97761.53;;;21.73;66.26
27202;BME280;14717;46.924;15.474;2022-09-09T11:04:22;97759.75;;;21.65;65.34
27202;BME280;14717;46.924;15.474;2022-09-09T11:06:54;97748.56;;;21.68;65.51
27202;BME280;14717;46.924;15.474;2022-09-09T11:09:26;97757.88;;;21.87;65.56
27202;BME280;14717;46.924;15.474;2022-09-09T11:11:58;97752.84;;;22.15;67.65
27202;BME280;14717;46.924;15.474;2022-09-09T11:14:43;97752.22;;;22.22;63.47
27202;BME280;14717;46.924;15.474;2022-09-09T11:17:16;97737.44;;;22.09;63.88
27202;BME280;14717;46.924;15.474;2022-09-09T11:19:44;97736.19;;;22.44;65.52
27202;BME280;14717;46.924;15.474;2022-09-09T11:25:05;97727.59;;;22.78;62.29
27202;BME280;14717;46.924;15.474;2022-09-09T11:30:35;97702.56;;;22.32;61.77
27202;BME280;14717;46.924;15.474;2022-09-09T11:38:28;97730.19;;;22.46;59.93
27202;BME280;14717;46.924;15.474;2022-09-09T11:40:58;97733.75;;;22.43;62.57
27202;BME280;14717;46.924;15.474;2022-09-09T11:43:38;97721.91;;;22.34;60.60
27202;BME280;14717;46.924;15.474;2022-09-09T11:46:05;97718.03;;;22.42;60.52
27202;BME280;14717;46.924;15.474;2022-09-09T11:48:36;97714.03;;;22.43;59.96
27202;BME280;14717;46.924;15.474;2022-09-09T11:53:31;97692.88;;;22.71;60.30
27202;BME280;14717;46.924;15.474;2022-09-09T11:56:02;97691.28;;;22.73;59.80
27202;BME280;14717;46.924;15.474;2022-09-09T11:58:36;97692.03;;;22.70;60.23
27202;BME280;14717;46.924;15.474;2022-09-09T12:01:35;97689.16;;;22.45;59.37
27202;BME280;14717;46.924;15.474;2022-09-09T12:06:46;97681.31;;;22.35;64.32
27202;BME280;14717;46.924;15.474;2022-09-09T12:09:45;97676.09;;;22.37;62.53
27202;BME280;14717;46.924;15.474;2022-09-09T12:17:52;97676.41;;;22.73;62.63
27202;BME280;14717;46.924;15.474;2022-09-09T12:20:36;97671.38;;;22.85;62.92
27202;BME280;14717;46.924;15.474;2022-09-09T12:25:57;97668.63;;;22.66;63.34
27202;BME280;14717;46.924;15.474;2022-09-09T12:31:19;97664.13;;;22.84;62.26
27202;BME280;14717;46.924;15.474;2022-09-09T12:33:48;97656.66;;;22.51;61.47
27202;BME280;14717;46.924;15.474;2022-09-09T12:36:19;97650.69;;;22.33;62.75
27202;BME280;14717;46.924;15.474;2022-09-09T12:38:46;97648.69;;;22.34;62.03
27202;BME280;14717;46.924;15.474;2022-09-09T12:41:35;97640.91;;;22.27;64.00
27202;BME280;14717;46.924;15.474;2022-09-09T12:44:06;97638.03;;;22.24;63.65
27202;BME280;14717;46.924;15.474;2022-09-09T12:46:36;97643.88;;;22.16;64.04
27202;BME280;14717;46.924;15.474;2022-09-09T12:49:03;97632.13;;;22.10;63.87
27202;BME280;14717;46.924;15.474;2022-09-09T12:51:32;97635.97;;;22.02;63.94
27202;BME280;14717;46.924;15.474;2022-09-09T12:53:59;97642.78;;;22.01;64.67
27202;BME280;14717;46.924;15.474;2022-09-09T12:56:31;97644.78;;;22.01;63.27
27202;BME280;14717;46.924;15.474;2022-09-09T12:59:00;97641.91;;;21.97;63.40
27202;BME280;14717;46.924;15.474;2022-09-09T13:01:31;97644.84;;;22.04;64.22
27202;BME280;14717;46.924;15.474;2022-09-09T13:04:01;97643.22;;;22.03;63.52
27202;BME280;14717;46.924;15.474;2022-09-09T13:06:28;97641.16;;;22.00;63.22
27202;BME280;14717;46.924;15.474;2022-09-09T13:08:58;97641.22;;;22.04;65.02
27202;BME280;14717;46.924;15.474;2022-09-09T13:11:38;97631.09;;;21.99;66.44
27202;BME280;14717;46.924;15.474;2022-09-09T13:14:05;97625.44;;;21.99;65.52
27202;BME280;14717;46.924;15.474;2022-09-09T13:16:35;97634.94;;;21.91;65.43
27202;BME280;14717;46.924;15.474;2022-09-09T13:21:39;97634.66;;;21.78;68.46
27202;BME280;14717;46.924;15.474;2022-09-09T13:24:29;97626.81;;;21.68;67.06
27202;BME280;14717;46.924;15.474;2022-09-09T13:26:58;97627.09;;;21.63;66.42
27202;BME280;14717;46.924;15.474;2022-09-09T13:29:27;97625.91;;;21.64;65.58
27202;BME280;14717;46.924;15.474;2022-09-09T13:31:53;97618.59;;;21.59;65.27
27202;BME280;14717;46.924;15.474;2022-09-09T13:37:04;97620.75;;;21.66;69.74
27202;BME280;14717;46.924;15.474;2022-09-09T13:39:34;97618.94;;;21.95;69.26
27202;BME280;14717;46.924;15.474;2022-09-09T13:42:02;97607.69;;;21.95;67.13
27202;BME280;14717;46.924;15.474;2022-09-09T13:44:37;97602.66;;;21.85;68.46
27202;BME280;14717;46.924;15.474;2022-09-09T13:47:06;97598.59;;;21.83;69.26
27202;BME280;14717;46.924;15.474;2022-09-09T13:49:42;97599.38;;;21.83;69.96
27202;BME280;14717;46.924;15.474;2022-09-09T13:52:11;97597.88;;;22.08;70.08
27202;BME280;14717;46.924;15.474;2022-09-09T13:54:37;97601.59;;;22.12;71.78
27202;BME280;14717;46.924;15.474;2022-09-09T13:57:03;97604.63;;;22.23;71.75
27202;BME280;14717;46.924;15.474;2022-09-09T13:59:30;97601.44;;;22.24;71.76
27202;BME280;14717;46.924;15.474;2022-09-09T14:01:57;97605.97;;;22.28;72.15
27202;BME280;14717;46.924;15.474;2022-09-09T14:04:22;97607.72;;;22.36;71.12
27202;BME280;14717;46.924;15.474;2022-09-09T14:06:51;97601.06;;;22.25;72.45
27202;BME280;14717;46.924;15.474;2022-09-09T14:09:17;97598.03;;;21.96;72.85
27202;BME280;14717;46.924;15.474;2022-09-09T14:11:44;97597.94;;;21.71;69.80
27202;BME280;14717;46.924;15.474;2022-09-09T14:14:10;97594.53;;;21.80;71.64
27202;BME280;14717;46.924;15.474;2022-09-09T14:16:36;97599.69;;;21.97;71.45
27202;BME280;14717;46.924;15.474;2022-09-09T14:19:09;97586.72;;;21.93;71.10
27202;BME280;14717;46.924;15.474;2022-09-09T14:21:34;97601.63;;;21.75;69.66
27202;BME280;14717;46.924;15.474;2022-09-09T14:24:00;97598.50;;;21.79;69.96
27202;BME280;14717;46.924;15.474;2022-09-09T14:26:26;97601.66;;;21.97;70.99
27202;BME280;14717;46.924;15.474;2022-09-09T14:28:56;97606.63;;;22.03;71.97
27202;BME280;14717;46.924;15.474;2022-09-09T14:31:22;97607.44;;;22.23;71.72
27202;BME280;14717;46.924;15.474;2022-09-09T14:33:48;97614.84;;;22.30;72.65
27202;BME280;14717;46.924;15.474;2022-09-09T14:36:13;97617.97;;;22.25;72.98
27202;BME280;14717;46.924;15.474;2022-09-09T14:38:40;97619.66;;;22.30;74.61
27202;BME280;14717;46.924;15.474;2022-09-09T14:41:12;97623.13;;;22.05;74.51
27202;BME280;14717;46.924;15.474;2022-09-09T14:43:38;97622.34;;;22.04;74.72
27202;BME280;14717;46.924;15.474;2022-09-09T14:46:05;97629.31;;;21.91;80.54
27202;BME280;14717;46.924;15.474;2022-09-09T14:48:31;97614.38;;;21.35;80.37
27202;BME280;14717;46.924;15.474;2022-09-09T14:51:14;97615.63;;;21.18;82.92
27202;BME280;14717;46.924;15.474;2022-09-09T14:53:41;97608.59;;;20.63;85.38
27202;BME280;14717;46.924;15.474;2022-09-09T14:56:13;97601.81;;;20.48;87.13
27202;BME280;14717;46.924;15.474;2022-09-09T14:58:38;97596.81;;;20.42;87.13